sensor_id;sensor_type;location;lat;lon;timestamp;pressure;altitude;pressure_sealevel;temperature;humidity
21760;BME280;11041;50.854;20.580;2022-11-06T00:00:22;99011.16;;;7.80;98.73
21760;BME280;11041;50.854;20.580;2022-11-06T00:02:59;99023.09;;;7.89;98.76
21760;BME280;11041;50.854;20.580;2022-11-06T00:05:27;99023.09;;;7.89;98.90
21760;BME280;11041;50.854;20.580;2022-11-06T00:08:15;99019.84;;;7.87;98.52
21760;BME280;11041;50.854;20.580;2022-11-06T00:10:50;99014.63;;;7.86;98.60
21760;BME280;11041;50.854;20.580;2022-11-06T00:13:17;99025.03;;;7.89;98.71
21760;BME280;11041;50.854;20.580;2022-11-06T00:16:15;99022.78;;;7.91;98.46
21760;BME280;11041;50.854;20.580;2022-11-06T00:18:46;99028.56;;;7.89;98.44
21760;BME280;11041;50.854;20.580;2022-11-06T00:21:20;99027.97;;;7.93;98.74
21760;BME280;11041;50.854;20.580;2022-11-06T00:23:48;99028.22;;;7.96;98.82
21760;BME280;11041;50.854;20.580;2022-11-06T00:26:19;99034.25;;;7.93;98.54
21760;BME280;11041;50.854;20.580;2022-11-06T00:28:47;99037.53;;;7.95;97.46
21760;BME280;11041;50.854;20.580;2022-11-06T00:31:18;99032.38;;;7.88;97.38
21760;BME280;11041;50.854;20.580;2022-11-06T00:33:45;99042.31;;;7.84;97.47
21760;BME280;11041;50.854;20.580;2022-11-06T00:36:16;99038.50;;;7.80;97.52
21760;BME280;11041;50.854;20.580;2022-11-06T00:38:44;99046.94;;;7.84;97.77
21760;BME280;11041;50.854;20.580;2022-11-06T00:41:14;99049.97;;;7.82;97.61
21760;BME280;11041;50.854;20.580;2022-11-06T00:43:58;99042.38;;;7.79;97.60
21760;BME280;11041;50.854;20.580;2022-11-06T00:46:26;99051.66;;;7.78;97.82
21760;BME280;11041;50.854;20.580;2022-11-06T00:48:54;99050.84;;;7.78;97.88
21760;BME280;11041;50.854;20.580;2022-11-06T00:51:26;99045.91;;;7.80;97.86
21760;BME280;11041;50.854;20.580;2022-11-06T00:53:56;99050.56;;;7.79;97.51
21760;BME280;11041;50.854;20.580;2022-11-06T00:56:24;99035.31;;;7.73;97.52
21760;BME280;11041;50.854;20.580;2022-11-06T00:58:52;99057.72;;;7.75;97.32
21760;BME280;11041;50.854;20.580;2022-11-06T01:01:26;99055.47;;;7.82;97.00
21760;BME280;11041;50.854;20.580;2022-11-06T01:04:01;99058.25;;;7.77;96.92
21760;BME280;11041;50.854;20.580;2022-11-06T01:06:35;99052.31;;;7.70;97.37
21760;BME280;11041;50.854;20.580;2022-11-06T01:09:04;99057.19;;;7.73;97.48
21760;BME280;11041;50.854;20.580;2022-11-06T01:11:36;99057.72;;;7.75;97.43
21760;BME280;11041;50.854;20.580;2022-11-06T01:14:06;99062.31;;;7.80;97.53
21760;BME280;11041;50.854;20.580;2022-11-06T01:16:34;99063.13;;;7.80;97.58
21760;BME280;11041;50.854;20.580;2022-11-06T01:19:02;99065.34;;;7.78;97.66
21760;BME280;11041;50.854;20.580;2022-11-06T01:21:33;99068.59;;;7.80;97.68
21760;BME280;11041;50.854;20.580;2022-11-06T01:24:11;99061.53;;;7.74;97.47
21760;BME280;11041;50.854;20.580;2022-11-06T01:26:38;99069.41;;;7.81;97.66
21760;BME280;11041;50.854;20.580;2022-11-06T01:29:10;99063.13;;;7.80;97.59
21760;BME280;11041;50.854;20.580;2022-11-06T01:31:37;99068.06;;;7.78;97.57
21760;BME280;11041;50.854;20.580;2022-11-06T01:34:04;99064.81;;;7.76;97.53
21760;BME280;11041;50.854;20.580;2022-11-06T01:36:41;99055.84;;;7.71;97.35
21760;BME280;11041;50.854;20.580;2022-11-06T01:39:12;99063.47;;;7.74;97.43
21760;BME280;11041;50.854;20.580;2022-11-06T01:41:47;99053.63;;;7.73;97.49
21760;BME280;11041;50.854;20.580;2022-11-06T01:47:30;99064.63;;;7.67;96.93
21760;BME280;11041;50.854;20.580;2022-11-06T01:50:04;99072.06;;;7.62;97.11
21760;BME280;11041;50.854;20.580;2022-11-06T01:52:34;99059.53;;;7.56;97.14
21760;BME280;11041;50.854;20.580;2022-11-06T01:55:22;99069.38;;;7.57;97.32
21760;BME280;11041;50.854;20.580;2022-11-06T01:57:49;99072.97;;;7.52;97.28
21760;BME280;11041;50.854;20.580;2022-11-06T02:00:17;99070.56;;;7.45;97.03
21760;BME280;11041;50.854;20.580;2022-11-06T02:02:45;99070.53;;;7.51;97.67
21760;BME280;11041;50.854;20.580;2022-11-06T02:05:12;99075.47;;;7.49;97.90
21760;BME280;11041;50.854;20.580;2022-11-06T02:07:42;99065.97;;;7.41;98.08
21760;BME280;11041;50.854;20.580;2022-11-06T02:10:09;99072.75;;;7.49;97.79
21760;BME280;11041;50.854;20.580;2022-11-06T02:22:41;99066.25;;;7.39;97.77
21760;BME280;11041;50.854;20.580;2022-11-06T02:25:37;99071.50;;;7.31;97.68
21760;BME280;11041;50.854;20.580;2022-11-06T02:28:24;99076.22;;;7.25;97.94
21760;BME280;11041;50.854;20.580;2022-11-06T02:30:57;99082.47;;;7.25;97.89
21760;BME280;11041;50.854;20.580;2022-11-06T02:33:37;99076.28;;;7.15;97.71
21760;BME280;11041;50.854;20.580;2022-11-06T02:36:14;99078.72;;;7.16;98.05
21760;BME280;11041;50.854;20.580;2022-11-06T02:38:49;99084.16;;;7.21;98.25
21760;BME280;11041;50.854;20.580;2022-11-06T02:41:23;99092.88;;;7.23;98.26
21760;BME280;11041;50.854;20.580;2022-11-06T02:43:56;99086.31;;;7.24;97.99
21760;BME280;11041;50.854;20.580;2022-11-06T02:46:31;99087.72;;;7.22;97.87
21760;BME280;11041;50.854;20.580;2022-11-06T02:49:31;99081.72;;;7.20;97.89
21760;BME280;11041;50.854;20.580;2022-11-06T02:52:15;99086.06;;;7.21;98.06
21760;BME280;11041;50.854;20.580;2022-11-06T02:54:52;99087.44;;;7.18;97.88
21760;BME280;11041;50.854;20.580;2022-11-06T02:57:25;99083.94;;;7.13;98.25
21760;BME280;11041;50.854;20.580;2022-11-06T03:00:07;99094.34;;;7.11;98.10
21760;BME280;11041;50.854;20.580;2022-11-06T03:05:26;99077.94;;;7.11;98.07
21760;BME280;11041;50.854;20.580;2022-11-06T03:08:07;99081.25;;;7.08;98.13
21760;BME280;11041;50.854;20.580;2022-11-06T03:11:14;99090.50;;;7.12;98.31
21760;BME280;11041;50.854;20.580;2022-11-06T03:14:12;99101.13;;;7.18;98.22
21760;BME280;11041;50.854;20.580;2022-11-06T03:17:10;99090.19;;;7.18;97.81
21760;BME280;11041;50.854;20.580;2022-11-06T03:22:46;99098.66;;;7.22;97.93
21760;BME280;11041;50.854;20.580;2022-11-06T03:25:37;99109.59;;;7.22;97.77
21760;BME280;11041;50.854;20.580;2022-11-06T03:28:33;99117.19;;;7.25;97.93
21760;BME280;11041;50.854;20.580;2022-11-06T03:31:16;99106.34;;;7.15;97.59
21760;BME280;11041;50.854;20.580;2022-11-06T03:33:54;99108.53;;;7.13;97.63
21760;BME280;11041;50.854;20.580;2022-11-06T03:36:33;99111.31;;;7.08;97.07
21760;BME280;11041;50.854;20.580;2022-11-06T03:39:15;99110.00;;;7.00;97.38
21760;BME280;11041;50.854;20.580;2022-11-06T03:41:50;99110.00;;;6.95;97.75
21760;BME280;11041;50.854;20.580;2022-11-06T03:44:26;99126.41;;;7.00;98.13
21760;BME280;11041;50.854;20.580;2022-11-06T03:47:02;99119.59;;;6.92;97.70
21760;BME280;11041;50.854;20.580;2022-11-06T03:49:42;99120.13;;;6.94;97.95
21760;BME280;11041;50.854;20.580;2022-11-06T03:52:20;99119.59;;;6.92;98.19
21760;BME280;11041;50.854;20.580;2022-11-06T03:55:20;99122.84;;;6.94;98.18
21760;BME280;11041;50.854;20.580;2022-11-06T03:58:09;99116.88;;;6.87;98.00
21760;BME280;11041;50.854;20.580;2022-11-06T04:00:41;99122.06;;;6.94;98.59
21760;BME280;11041;50.854;20.580;2022-11-06T04:03:30;99113.59;;;6.90;98.37
21760;BME280;11041;50.854;20.580;2022-11-06T04:06:59;99124.22;;;6.97;98.70
21760;BME280;11041;50.854;20.580;2022-11-06T04:09:04;99115.78;;;6.93;98.75
21760;BME280;11041;50.854;20.580;2022-11-06T04:11:51;99122.00;;;6.99;98.43
21760;BME280;11041;50.854;20.580;2022-11-06T04:14:42;99131.56;;;7.01;98.63
21760;BME280;11041;50.854;20.580;2022-11-06T04:17:13;99122.28;;;6.97;98.10
21760;BME280;11041;50.854;20.580;2022-11-06T04:19:49;99140.06;;;7.00;97.84
21760;BME280;11041;50.854;20.580;2022-11-06T04:26:10;99141.41;;;7.02;97.76
21760;BME280;11041;50.854;20.580;2022-11-06T04:31:55;99132.41;;;6.97;97.73
21760;BME280;11041;50.854;20.580;2022-11-06T04:37:30;99135.13;;;6.97;97.99
21760;BME280;11041;50.854;20.580;2022-11-06T04:40:12;99134.88;;;6.98;97.92
21760;BME280;11041;50.854;20.580;2022-11-06T04:43:14;99140.34;;;6.98;97.69
21760;BME280;11041;50.854;20.580;2022-11-06T04:45:51;99134.34;;;6.91;97.79
21760;BME280;11041;50.854;20.580;2022-11-06T04:48:21;99138.75;;;6.87;98.16
21760;BME280;11041;50.854;20.580;2022-11-06T04:50:53;99150.22;;;6.89;97.95
21760;BME280;11041;50.854;20.580;2022-11-06T04:53:23;99146.38;;;6.90;97.98
21760;BME280;11041;50.854;20.580;2022-11-06T04:55:59;99142.28;;;6.93;98.31
21760;BME280;11041;50.854;20.580;2022-11-06T04:58:26;99144.13;;;6.97;98.05
21760;BME280;11041;50.854;20.580;2022-11-06T05:00:53;99140.34;;;6.98;98.36
21760;BME280;11041;50.854;20.580;2022-11-06T05:03:19;99150.13;;;7.04;98.18
21760;BME280;11041;50.854;20.580;2022-11-06T05:05:46;99150.13;;;7.10;97.86
21760;BME280;11041;50.854;20.580;2022-11-06T05:08:18;99159.13;;;7.10;97.74
21760;BME280;11041;50.854;20.580;2022-11-06T05:10:46;99146.88;;;7.02;97.62
21760;BME280;11041;50.854;20.580;2022-11-06T05:13:14;99161.31;;;7.08;97.65
21760;BME280;11041;50.854;20.580;2022-11-06T05:15:41;99159.44;;;7.03;97.29
21760;BME280;11041;50.854;20.580;2022-11-06T05:18:08;99168.94;;;7.11;97.48
21760;BME280;11041;50.854;20.580;2022-11-06T05:20:35;99168.13;;;7.11;97.23
21760;BME280;11041;50.854;20.580;2022-11-06T05:23:02;99171.97;;;7.10;97.18
21760;BME280;11041;50.854;20.580;2022-11-06T05:25:36;99173.59;;;7.11;96.59
21760;BME280;11041;50.854;20.580;2022-11-06T05:28:06;99179.63;;;7.08;96.83
21760;BME280;11041;50.854;20.580;2022-11-06T05:30:35;99173.34;;;7.02;96.64
21760;BME280;11041;50.854;20.580;2022-11-06T05:33:03;99184.28;;;7.02;97.13
21760;BME280;11041;50.854;20.580;2022-11-06T05:35:29;99183.47;;;7.01;96.85
21760;BME280;11041;50.854;20.580;2022-11-06T05:38:02;99184.59;;;7.00;97.36
21760;BME280;11041;50.854;20.580;2022-11-06T05:40:30;99185.66;;;6.99;97.67
21760;BME280;11041;50.854;20.580;2022-11-06T05:42:56;99182.94;;;6.99;96.99
21760;BME280;11041;50.854;20.580;2022-11-06T05:45:23;99185.66;;;6.99;97.26
21760;BME280;11041;50.854;20.580;2022-11-06T05:47:49;99187.31;;;7.00;96.99
21760;BME280;11041;50.854;20.580;2022-11-06T05:50:16;99192.78;;;7.00;97.07
21760;BME280;11041;50.854;20.580;2022-11-06T05:52:42;99184.81;;;7.04;97.20
21760;BME280;11041;50.854;20.580;2022-11-06T05:55:09;99190.28;;;7.04;96.89
21760;BME280;11041;50.854;20.580;2022-11-06T05:57:36;99185.13;;;6.97;96.88
21760;BME280;11041;50.854;20.580;2022-11-06T06:00:05;99192.78;;;7.00;96.88
21760;BME280;11041;50.854;20.580;2022-11-06T06:02:31;99193.31;;;6.97;96.84
21760;BME280;11041;50.854;20.580;2022-11-06T06:04:58;99199.06;;;7.01;96.80
21760;BME280;11041;50.854;20.580;2022-11-06T06:07:24;99190.63;;;6.92;96.40
21760;BME280;11041;50.854;20.580;2022-11-06T06:09:51;99198.53;;;6.94;96.46
21760;BME280;11041;50.854;20.580;2022-11-06T06:12:18;99201.81;;;6.96;96.34
21760;BME280;11041;50.854;20.580;2022-11-06T06:14:45;99207.28;;;6.96;96.76
21760;BME280;11041;50.854;20.580;2022-11-06T06:17:11;99203.75;;;6.95;96.96
21760;BME280;11041;50.854;20.580;2022-11-06T06:19:38;99208.66;;;6.93;96.89
21760;BME280;11041;50.854;20.580;2022-11-06T06:22:04;99208.09;;;6.96;97.13
21760;BME280;11041;50.854;20.580;2022-11-06T06:24:31;99209.47;;;6.94;97.51
21760;BME280;11041;50.854;20.580;2022-11-06T06:26:57;99211.09;;;7.00;97.23
21760;BME280;11041;50.854;20.580;2022-11-06T06:29:24;99211.38;;;6.98;96.44
21760;BME280;11041;50.854;20.580;2022-11-06T06:31:50;99219.53;;;7.03;96.40
21760;BME280;11041;50.854;20.580;2022-11-06T06:34:17;99213.28;;;6.98;96.38
21760;BME280;11041;50.854;20.580;2022-11-06T06:36:43;99216.56;;;7.00;96.39
21760;BME280;11041;50.854;20.580;2022-11-06T06:39:10;99214.09;;;6.98;96.45
21760;BME280;11041;50.854;20.580;2022-11-06T06:41:36;99216.81;;;7.03;96.80
21760;BME280;11041;50.854;20.580;2022-11-06T06:44:03;99208.63;;;6.98;96.52
21760;BME280;11041;50.854;20.580;2022-11-06T06:46:47;99212.16;;;7.04;96.69
21760;BME280;11041;50.854;20.580;2022-11-06T06:50:45;99214.84;;;7.09;96.50
21760;BME280;11041;50.854;20.580;2022-11-06T06:53:52;99223.34;;;7.08;96.40
21760;BME280;11041;50.854;20.580;2022-11-06T06:56:20;99226.09;;;7.08;96.53
21760;BME280;11041;50.854;20.580;2022-11-06T06:58:47;99213.25;;;7.03;96.43
21760;BME280;11041;50.854;20.580;2022-11-06T07:05:15;99227.69;;;7.14;96.25
21760;BME280;11041;50.854;20.580;2022-11-06T07:07:41;99227.69;;;7.14;96.30
21760;BME280;11041;50.854;20.580;2022-11-06T13:22:10;99085.28;;;10.11;82.11
21760;BME280;11041;50.854;20.580;2022-11-06T13:27:21;99102.88;;;10.24;82.61
21760;BME280;11041;50.854;20.580;2022-11-06T13:29:54;99093.03;;;10.23;83.10
21760;BME280;11041;50.854;20.580;2022-11-06T13:32:25;99097.09;;;10.26;82.40
21760;BME280;11041;50.854;20.580;2022-11-06T13:34:57;99087.03;;;10.21;82.29
21760;BME280;11041;50.854;20.580;2022-11-06T13:37:39;99103.31;;;10.31;82.19
21760;BME280;11041;50.854;20.580;2022-11-06T13:40:43;99114.72;;;10.38;82.03
21760;BME280;11041;50.854;20.580;2022-11-06T13:43:25;99094.28;;;10.31;81.93
21760;BME280;11041;50.854;20.580;2022-11-06T13:51:52;99091.53;;;10.31;80.96
21760;BME280;11041;50.854;20.580;2022-11-06T14:06:33;99111.28;;;10.47;82.07
21760;BME280;11041;50.854;20.580;2022-11-06T14:09:19;99103.44;;;10.40;81.73
21760;BME280;11041;50.854;20.580;2022-11-06T14:11:53;99113.00;;;10.42;81.88
21760;BME280;11041;50.854;20.580;2022-11-06T14:20:29;99101.59;;;10.35;82.40
21760;BME280;11041;50.854;20.580;2022-11-06T14:26:02;99093.47;;;10.30;82.42
21760;BME280;11041;50.854;20.580;2022-11-06T14:28:35;99090.19;;;10.28;82.44
21760;BME280;11041;50.854;20.580;2022-11-06T14:31:02;99089.06;;;10.29;82.60
21760;BME280;11041;50.854;20.580;2022-11-06T14:36:35;99078.25;;;10.19;82.91
21760;BME280;11041;50.854;20.580;2022-11-06T14:39:08;99088.44;;;10.18;83.13
21760;BME280;11041;50.854;20.580;2022-11-06T14:44:26;99086.00;;;10.17;83.60
21760;BME280;11041;50.854;20.580;2022-11-06T14:47:02;99077.34;;;10.10;83.99
21760;BME280;11041;50.854;20.580;2022-11-06T14:49:43;99085.28;;;10.11;83.79
21760;BME280;11041;50.854;20.580;2022-11-06T14:52:16;99085.38;;;10.06;84.12
21760;BME280;11041;50.854;20.580;2022-11-06T14:55:01;99074.19;;;10.02;84.19
21760;BME280;11041;50.854;20.580;2022-11-06T15:00:57;99083.84;;;10.00;84.27
21760;BME280;11041;50.854;20.580;2022-11-06T15:16:46;99083.72;;;9.77;84.44
21760;BME280;11041;50.854;20.580;2022-11-06T15:19:33;99086.66;;;9.67;83.74
21760;BME280;11041;50.854;20.580;2022-11-06T15:22:35;99076.66;;;9.57;83.87
21760;BME280;11041;50.854;20.580;2022-11-06T15:25:27;99074.06;;;9.47;84.01
21760;BME280;11041;50.854;20.580;2022-11-06T15:28:18;99061.78;;;9.26;83.74
21760;BME280;11041;50.854;20.580;2022-11-06T15:31:11;99063.91;;;9.15;83.72
21760;BME280;11041;50.854;20.580;2022-11-06T15:33:56;99078.41;;;9.15;83.51
21760;BME280;11041;50.854;20.580;2022-11-06T15:36:27;99070.13;;;9.02;83.47
21760;BME280;11041;50.854;20.580;2022-11-06T15:38:57;99072.81;;;8.88;83.80
21760;BME280;11041;50.854;20.580;2022-11-06T15:41:26;99075.69;;;8.78;83.91
21760;BME280;11041;50.854;20.580;2022-11-06T15:43:54;99073.69;;;8.64;84.01
21760;BME280;11041;50.854;20.580;2022-11-06T15:46:27;99055.59;;;8.44;84.27
21760;BME280;11041;50.854;20.580;2022-11-06T15:49:18;99074.25;;;8.42;84.26
21760;BME280;11041;50.854;20.580;2022-11-06T15:52:05;99079.63;;;8.23;84.56
21760;BME280;11041;50.854;20.580;2022-11-06T15:54:42;99077.59;;;8.10;84.77
21760;BME280;11041;50.854;20.580;2022-11-06T15:57:16;99082.91;;;8.01;84.96
21760;BME280;11041;50.854;20.580;2022-11-06T15:59:46;99093.44;;;7.89;85.84
21760;BME280;11041;50.854;20.580;2022-11-06T16:02:21;99095.47;;;7.73;85.85
21760;BME280;11041;50.854;20.580;2022-11-06T16:04:49;99092.25;;;7.66;86.19
21760;BME280;11041;50.854;20.580;2022-11-06T16:07:17;99074.69;;;7.43;86.47
21760;BME280;11041;50.854;20.580;2022-11-06T16:09:46;99081.84;;;7.39;86.75
21760;BME280;11041;50.854;20.580;2022-11-06T16:12:17;99087.59;;;7.37;86.69
21760;BME280;11041;50.854;20.580;2022-11-06T16:14:44;99073.75;;;7.23;86.75
21760;BME280;11041;50.854;20.580;2022-11-06T16:17:23;99076.84;;;7.12;86.44
21760;BME280;11041;50.854;20.580;2022-11-06T16:19:53;99073.88;;;7.08;86.73
21760;BME280;11041;50.854;20.580;2022-11-06T16:22:30;99070.69;;;6.96;86.72
21760;BME280;11041;50.854;20.580;2022-11-06T16:25:05;99067.53;;;6.78;87.03
21760;BME280;11041;50.854;20.580;2022-11-06T16:27:37;99069.41;;;6.78;86.90
21760;BME280;11041;50.854;20.580;2022-11-06T16:30:21;99069.22;;;6.69;87.06
21760;BME280;11041;50.854;20.580;2022-11-06T16:32:49;99051.25;;;6.58;87.49
21760;BME280;11041;50.854;20.580;2022-11-06T16:35:35;99073.84;;;6.64;87.35
21760;BME280;11041;50.854;20.580;2022-11-06T16:40:53;99075.06;;;6.47;87.56
21760;BME280;11041;50.854;20.580;2022-11-06T16:43:22;99070.72;;;6.41;88.34
21760;BME280;11041;50.854;20.580;2022-11-06T16:45:57;99079.16;;;6.39;88.53
21760;BME280;11041;50.854;20.580;2022-11-06T16:48:32;99072.91;;;6.34;88.66
21760;BME280;11041;50.854;20.580;2022-11-06T16:51:05;99073.50;;;6.31;88.63
21760;BME280;11041;50.854;20.580;2022-11-06T16:53:59;99077.03;;;6.31;88.31
21760;BME280;11041;50.854;20.580;2022-11-06T16:56:34;99081.69;;;6.26;88.36
21760;BME280;11041;50.854;20.580;2022-11-06T16:59:14;99077.34;;;6.19;88.17
21760;BME280;11041;50.854;20.580;2022-11-06T17:01:45;99088.28;;;6.14;88.07
21760;BME280;11041;50.854;20.580;2022-11-06T17:04:33;99082.28;;;6.07;87.87
21760;BME280;11041;50.854;20.580;2022-11-06T17:06:59;99076.31;;;6.00;88.16
21760;BME280;11041;50.854;20.580;2022-11-06T17:09:33;99077.94;;;5.91;88.58
21760;BME280;11041;50.854;20.580;2022-11-06T17:12:02;99068.97;;;5.85;88.31
21760;BME280;11041;50.854;20.580;2022-11-06T17:14:29;99077.16;;;5.80;88.06
21760;BME280;11041;50.854;20.580;2022-11-06T17:17:00;99063.25;;;5.71;88.36
21760;BME280;11041;50.854;20.580;2022-11-06T17:19:28;99066.53;;;5.68;88.08
21760;BME280;11041;50.854;20.580;2022-11-06T17:21:55;99063.28;;;5.61;88.12
21760;BME280;11041;50.854;20.580;2022-11-06T17:24:23;99065.19;;;5.61;88.29
21760;BME280;11041;50.854;20.580;2022-11-06T17:26:52;99062.75;;;5.54;88.69
21760;BME280;11041;50.854;20.580;2022-11-06T17:29:18;99076.38;;;5.54;89.04
21760;BME280;11041;50.854;20.580;2022-11-06T17:31:45;99064.66;;;5.53;88.70
21760;BME280;11041;50.854;20.580;2022-11-06T17:34:12;99054.84;;;5.47;88.70
21760;BME280;11041;50.854;20.580;2022-11-06T17:36:38;99069.84;;;5.45;88.12
21760;BME280;11041;50.854;20.580;2022-11-06T17:39:05;99062.75;;;5.33;88.46
21760;BME280;11041;50.854;20.580;2022-11-06T17:41:31;99052.66;;;5.29;88.55
21760;BME280;11041;50.854;20.580;2022-11-06T17:44:12;99063.84;;;5.27;87.89
21760;BME280;11041;50.854;20.580;2022-11-06T17:46:41;99067.13;;;5.24;88.42
21760;BME280;11041;50.854;20.580;2022-11-06T17:49:10;99066.03;;;5.20;87.99
21760;BME280;11041;50.854;20.580;2022-11-06T17:51:36;99061.41;;;5.16;87.43
21760;BME280;11041;50.854;20.580;2022-11-06T17:54:16;99055.41;;;5.03;87.64
21760;BME280;11041;50.854;20.580;2022-11-06T17:56:43;99051.84;;;4.98;87.84
21760;BME280;11041;50.854;20.580;2022-11-06T17:59:11;99066.00;;;5.00;87.37
21760;BME280;11041;50.854;20.580;2022-11-06T18:01:39;99051.84;;;4.93;87.89
21760;BME280;11041;50.854;20.580;2022-11-06T18:04:06;99055.34;;;4.83;87.53
21760;BME280;11041;50.854;20.580;2022-11-06T18:06:32;99052.63;;;4.78;87.80
21760;BME280;11041;50.854;20.580;2022-11-06T18:09:02;99058.63;;;4.69;87.35
21760;BME280;11041;50.854;20.580;2022-11-06T18:11:28;99067.84;;;4.68;87.65
21760;BME280;11041;50.854;20.580;2022-11-06T18:13:58;99071.94;;;4.61;87.56
21760;BME280;11041;50.854;20.580;2022-11-06T18:16:28;99058.56;;;4.54;87.54
21760;BME280;11041;50.854;20.580;2022-11-06T18:18:58;99064.28;;;4.53;87.21
21760;BME280;11041;50.854;20.580;2022-11-06T18:21:24;99067.00;;;4.47;87.58
21760;BME280;11041;50.854;20.580;2022-11-06T18:23:51;99066.44;;;4.45;86.97
21760;BME280;11041;50.854;20.580;2022-11-06T18:26:19;99068.06;;;4.41;87.17
21760;BME280;11041;50.854;20.580;2022-11-06T18:28:48;99081.09;;;4.39;87.46
21760;BME280;11041;50.854;20.580;2022-11-06T18:31:15;99070.50;;;4.38;87.51
21760;BME280;11041;50.854;20.580;2022-11-06T18:33:41;99061.50;;;4.32;87.63
21760;BME280;11041;50.854;20.580;2022-11-06T18:36:10;99054.41;;;4.26;87.61
21760;BME280;11041;50.854;20.580;2022-11-06T18:38:38;99054.94;;;4.28;88.42
21760;BME280;11041;50.854;20.580;2022-11-06T18:41:13;99056.84;;;4.27;88.60
21760;BME280;11041;50.854;20.580;2022-11-06T18:43:41;99040.25;;;4.24;88.85
21760;BME280;11041;50.854;20.580;2022-11-06T18:46:11;99045.16;;;4.27;89.41
21760;BME280;11041;50.854;20.580;2022-11-06T18:48:39;99057.72;;;4.38;89.86
21760;BME280;11041;50.854;20.580;2022-11-06T18:51:14;99048.47;;;4.44;89.85
21760;BME280;11041;50.854;20.580;2022-11-06T18:53:42;99051.25;;;4.55;90.60
21760;BME280;11041;50.854;20.580;2022-11-06T18:56:14;99041.72;;;4.62;91.35
21760;BME280;11041;50.854;20.580;2022-11-06T18:58:42;99025.94;;;4.64;91.12
21760;BME280;11041;50.854;20.580;2022-11-06T19:01:12;99031.66;;;4.73;92.41
21760;BME280;11041;50.854;20.580;2022-11-06T19:03:40;99036.84;;;4.90;92.04
21760;BME280;11041;50.854;20.580;2022-11-06T19:06:11;99040.97;;;5.03;91.79
21760;BME280;11041;50.854;20.580;2022-11-06T19:08:38;99034.16;;;5.10;92.18
21760;BME280;11041;50.854;20.580;2022-11-06T19:11:07;99033.88;;;5.17;92.87
21760;BME280;11041;50.854;20.580;2022-11-06T19:13:35;99023.00;;;5.22;93.31
21760;BME280;11041;50.854;20.580;2022-11-06T19:16:01;99018.59;;;5.31;92.88
21760;BME280;11041;50.854;20.580;2022-11-06T19:18:34;99015.88;;;5.42;92.93
21760;BME280;11041;50.854;20.580;2022-11-06T19:21:08;99016.41;;;5.49;93.40
21760;BME280;11041;50.854;20.580;2022-11-06T19:23:39;99019.38;;;5.58;93.76
21760;BME280;11041;50.854;20.580;2022-11-06T19:26:15;99023.19;;;5.67;93.79
21760;BME280;11041;50.854;20.580;2022-11-06T19:28:42;99027.53;;;5.73;93.53
21760;BME280;11041;50.854;20.580;2022-11-06T19:31:09;99019.63;;;5.76;93.38
21760;BME280;11041;50.854;20.580;2022-11-06T19:33:36;99043.59;;;5.90;93.82
21760;BME280;11041;50.854;20.580;2022-11-06T19:36:03;99034.28;;;5.91;93.95
21760;BME280;11041;50.854;20.580;2022-11-06T19:38:30;99041.66;;;6.01;93.70
21760;BME280;11041;50.854;20.580;2022-11-06T19:40:59;99037.56;;;6.03;93.60
21760;BME280;11041;50.854;20.580;2022-11-06T19:43:28;99031.28;;;6.03;93.78
21760;BME280;11041;50.854;20.580;2022-11-06T19:45:55;99032.09;;;6.08;93.56
21760;BME280;11041;50.854;20.580;2022-11-06T19:48:28;99042.69;;;6.20;94.02
21760;BME280;11041;50.854;20.580;2022-11-06T19:50:55;99039.94;;;6.20;93.73
21760;BME280;11041;50.854;20.580;2022-11-06T19:53:23;99032.59;;;6.15;93.63
21760;BME280;11041;50.854;20.580;2022-11-06T19:55:50;99043.75;;;6.24;93.71
21760;BME280;11041;50.854;20.580;2022-11-06T19:58:18;99040.19;;;6.29;94.03
21760;BME280;11041;50.854;20.580;2022-11-06T20:00:46;99033.59;;;6.35;93.41
21760;BME280;11041;50.854;20.580;2022-11-06T20:03:16;99035.50;;;6.39;93.94
21760;BME280;11041;50.854;20.580;2022-11-06T20:05:43;99030.88;;;6.40;93.80
21760;BME280;11041;50.854;20.580;2022-11-06T20:08:11;99028.94;;;6.40;93.34
21760;BME280;11041;50.854;20.580;2022-11-06T20:10:37;99023.81;;;6.29;93.17
21760;BME280;11041;50.854;20.580;2022-11-06T20:13:04;99029.28;;;6.29;93.70
21760;BME280;11041;50.854;20.580;2022-11-06T20:15:30;99022.19;;;6.33;93.75
21760;BME280;11041;50.854;20.580;2022-11-06T20:17:57;99019.72;;;6.31;94.24
21760;BME280;11041;50.854;20.580;2022-11-06T20:20:23;99018.59;;;6.37;94.36
21760;BME280;11041;50.854;20.580;2022-11-06T20:22:51;99028.13;;;6.45;94.37
21760;BME280;11041;50.854;20.580;2022-11-06T20:25:19;99031.63;;;6.51;93.90
21760;BME280;11041;50.854;20.580;2022-11-06T20:27:46;99021.81;;;6.50;93.77
21760;BME280;11041;50.854;20.580;2022-11-06T20:30:13;99022.31;;;6.57;94.28
21760;BME280;11041;50.854;20.580;2022-11-06T20:32:41;99006.72;;;6.63;94.16
21760;BME280;11041;50.854;20.580;2022-11-06T20:35:08;98984.91;;;6.57;93.84
21760;BME280;11041;50.854;20.580;2022-11-06T20:37:35;98994.72;;;6.58;93.43
21760;BME280;11041;50.854;20.580;2022-11-06T20:40:03;99000.97;;;6.64;93.72
21760;BME280;11041;50.854;20.580;2022-11-06T20:42:30;98988.97;;;6.60;93.98
21760;BME280;11041;50.854;20.580;2022-11-06T20:44:57;98988.72;;;6.61;94.03
21760;BME280;11041;50.854;20.580;2022-11-06T20:47:24;98978.81;;;6.66;93.78
21760;BME280;11041;50.854;20.580;2022-11-06T20:49:51;98996.53;;;6.73;94.10
21760;BME280;11041;50.854;20.580;2022-11-06T20:52:17;98990.50;;;6.76;94.09
21760;BME280;11041;50.854;20.580;2022-11-06T20:54:44;98983.72;;;6.74;93.62
21760;BME280;11041;50.854;20.580;2022-11-06T20:57:11;98980.13;;;6.73;93.84
21760;BME280;11041;50.854;20.580;2022-11-06T20:59:37;98991.56;;;6.80;93.74
21760;BME280;11041;50.854;20.580;2022-11-06T21:02:04;98995.13;;;6.81;93.81
21760;BME280;11041;50.854;20.580;2022-11-06T21:04:31;98994.81;;;6.82;93.62
21760;BME280;11041;50.854;20.580;2022-11-06T21:06:57;98976.00;;;6.81;93.66
21760;BME280;11041;50.854;20.580;2022-11-06T21:09:23;98981.69;;;6.85;93.63